sensor_id;sensor_type;location;lat;lon;timestamp;P1;durP1;ratioP1;P2;durP2;ratioP2
57055;SDS011;42945;51.718;5.324;2022-09-09T00:05:12;3.67;;;1.40;;
57055;SDS011;42945;51.718;5.324;2022-09-09T00:11:09;6.22;;;1.70;;
57055;SDS011;42945;51.718;5.324;2022-09-09T00:17:04;7.45;;;1.80;;
57055;SDS011;42945;51.718;5.324;2022-09-09T00:53:28;5.75;;;2.28;;
57055;SDS011;42945;51.718;5.324;2022-09-09T01:05:19;5.80;;;2.25;;
57055;SDS011;42945;51.718;5.324;2022-09-09T01:11:25;6.65;;;2.70;;
57055;SDS011;42945;51.718;5.324;2022-09-09T01:17:26;5.40;;;2.30;;
57055;SDS011;42945;51.718;5.324;2022-09-09T01:29:17;7.05;;;2.63;;
57055;SDS011;42945;51.718;5.324;2022-09-09T01:35:14;4.78;;;2.60;;
57055;SDS011;42945;51.718;5.324;2022-09-09T01:41:06;8.95;;;2.88;;
57055;SDS011;42945;51.718;5.324;2022-09-09T01:46:55;8.23;;;2.60;;
57055;SDS011;42945;51.718;5.324;2022-09-09T01:52:56;7.35;;;3.05;;
57055;SDS011;42945;51.718;5.324;2022-09-09T02:04:50;12.30;;;3.10;;
57055;SDS011;42945;51.718;5.324;2022-09-09T02:16:47;6.20;;;2.92;;
57055;SDS011;42945;51.718;5.324;2022-09-09T02:26:44;8.55;;;2.92;;
57055;SDS011;42945;51.718;5.324;2022-09-09T02:32:35;6.78;;;3.13;;
57055;SDS011;42945;51.718;5.324;2022-09-09T02:38:27;8.93;;;2.72;;
57055;SDS011;42945;51.718;5.324;2022-09-09T02:44:20;9.10;;;3.65;;
57055;SDS011;42945;51.718;5.324;2022-09-09T02:50:11;10.20;;;2.97;;
57055;SDS011;42945;51.718;5.324;2022-09-09T02:56:17;9.57;;;3.70;;
57055;SDS011;42945;51.718;5.324;2022-09-09T03:02:09;8.40;;;3.30;;
57055;SDS011;42945;51.718;5.324;2022-09-09T03:07:58;8.63;;;3.20;;
57055;SDS011;42945;51.718;5.324;2022-09-09T03:13:46;14.75;;;3.78;;
57055;SDS011;42945;51.718;5.324;2022-09-09T03:19:35;9.85;;;3.42;;
57055;SDS011;42945;51.718;5.324;2022-09-09T03:29:23;10.27;;;3.47;;
57055;SDS011;42945;51.718;5.324;2022-09-09T03:35:11;9.23;;;3.42;;
57055;SDS011;42945;51.718;5.324;2022-09-09T03:41:00;11.55;;;3.70;;
57055;SDS011;42945;51.718;5.324;2022-09-09T03:46:48;10.75;;;3.38;;
57055;SDS011;42945;51.718;5.324;2022-09-09T03:52:39;11.75;;;3.47;;
57055;SDS011;42945;51.718;5.324;2022-09-09T03:58:28;9.45;;;3.15;;
57055;SDS011;42945;51.718;5.324;2022-09-09T04:04:18;13.07;;;3.97;;
57055;SDS011;42945;51.718;5.324;2022-09-09T04:10:08;9.60;;;3.30;;
57055;SDS011;42945;51.718;5.324;2022-09-09T04:15:57;10.57;;;3.63;;
57055;SDS011;42945;51.718;5.324;2022-09-09T04:21:47;8.10;;;3.60;;
57055;SDS011;42945;51.718;5.324;2022-09-09T04:31:34;12.07;;;3.80;;
57055;SDS011;42945;51.718;5.324;2022-09-09T04:37:22;12.63;;;3.75;;
57055;SDS011;42945;51.718;5.324;2022-09-09T04:43:12;11.68;;;3.45;;
57055;SDS011;42945;51.718;5.324;2022-09-09T04:49:04;13.00;;;4.05;;
57055;SDS011;42945;51.718;5.324;2022-09-09T04:54:53;9.70;;;3.78;;
57055;SDS011;42945;51.718;5.324;2022-09-09T05:00:41;14.00;;;3.47;;
57055;SDS011;42945;51.718;5.324;2022-09-09T05:06:29;12.38;;;3.47;;
57055;SDS011;42945;51.718;5.324;2022-09-09T05:12:18;12.38;;;3.63;;
57055;SDS011;42945;51.718;5.324;2022-09-09T05:18:05;13.07;;;3.50;;
57055;SDS011;42945;51.718;5.324;2022-09-09T05:23:54;18.00;;;3.45;;
57055;SDS011;42945;51.718;5.324;2022-09-09T05:33:40;12.20;;;2.88;;
57055;SDS011;42945;51.718;5.324;2022-09-09T05:39:56;12.30;;;2.80;;
57055;SDS011;42945;51.718;5.324;2022-09-09T05:45:44;13.10;;;3.30;;
57055;SDS011;42945;51.718;5.324;2022-09-09T05:51:34;13.10;;;2.97;;
57055;SDS011;42945;51.718;5.324;2022-09-09T05:57:23;9.23;;;2.80;;
57055;SDS011;42945;51.718;5.324;2022-09-09T06:03:12;8.50;;;2.70;;
57055;SDS011;42945;51.718;5.324;2022-09-09T06:09:00;15.02;;;3.00;;
57055;SDS011;42945;51.718;5.324;2022-09-09T06:14:48;12.98;;;2.97;;
57055;SDS011;42945;51.718;5.324;2022-09-09T06:20:38;13.10;;;2.65;;
57055;SDS011;42945;51.718;5.324;2022-09-09T06:26:27;8.20;;;2.67;;
57055;SDS011;42945;51.718;5.324;2022-09-09T06:32:14;10.45;;;2.55;;
57055;SDS011;42945;51.718;5.324;2022-09-09T06:38:02;14.00;;;2.23;;
57055;SDS011;42945;51.718;5.324;2022-09-09T06:43:53;13.95;;;2.28;;
57055;SDS011;42945;51.718;5.324;2022-09-09T06:49:45;13.70;;;2.40;;
57055;SDS011;42945;51.718;5.324;2022-09-09T06:55:33;12.67;;;2.47;;
57055;SDS011;42945;51.718;5.324;2022-09-09T07:01:23;12.05;;;2.38;;
57055;SDS011;42945;51.718;5.324;2022-09-09T07:07:12;14.40;;;3.38;;
57055;SDS011;42945;51.718;5.324;2022-09-09T07:13:03;12.90;;;2.17;;
57055;SDS011;42945;51.718;5.324;2022-09-09T07:18:52;13.30;;;2.40;;
57055;SDS011;42945;51.718;5.324;2022-09-09T07:24:47;9.10;;;2.20;;
57055;SDS011;42945;51.718;5.324;2022-09-09T07:30:37;9.98;;;2.15;;
57055;SDS011;42945;51.718;5.324;2022-09-09T07:36:32;13.90;;;2.50;;
57055;SDS011;42945;51.718;5.324;2022-09-09T07:42:23;10.67;;;2.10;;
57055;SDS011;42945;51.718;5.324;2022-09-09T07:48:10;7.90;;;1.92;;
57055;SDS011;42945;51.718;5.324;2022-09-09T07:54:03;9.90;;;2.13;;
57055;SDS011;42945;51.718;5.324;2022-09-09T07:59:56;7.22;;;1.80;;
57055;SDS011;42945;51.718;5.324;2022-09-09T08:05:45;15.17;;;2.70;;
57055;SDS011;42945;51.718;5.324;2022-09-09T08:11:34;14.88;;;2.17;;
57055;SDS011;42945;51.718;5.324;2022-09-09T08:17:23;8.57;;;2.03;;
57055;SDS011;42945;51.718;5.324;2022-09-09T08:23:12;9.02;;;1.40;;
57055;SDS011;42945;51.718;5.324;2022-09-09T08:29:07;9.32;;;1.85;;
57055;SDS011;42945;51.718;5.324;2022-09-09T08:38:50;15.25;;;2.30;;
57055;SDS011;42945;51.718;5.324;2022-09-09T08:44:41;13.82;;;1.77;;
57055;SDS011;42945;51.718;5.324;2022-09-09T08:50:50;12.35;;;2.15;;
57055;SDS011;42945;51.718;5.324;2022-09-09T08:56:39;6.53;;;1.60;;
57055;SDS011;42945;51.718;5.324;2022-09-09T09:02:38;12.13;;;1.98;;
57055;SDS011;42945;51.718;5.324;2022-09-09T09:08:51;8.57;;;1.77;;
57055;SDS011;42945;51.718;5.324;2022-09-09T09:14:46;6.45;;;1.30;;
57055;SDS011;42945;51.718;5.324;2022-09-09T09:20:39;11.23;;;1.95;;
57055;SDS011;42945;51.718;5.324;2022-09-09T09:26:34;11.95;;;1.50;;
57055;SDS011;42945;51.718;5.324;2022-09-09T09:32:24;7.97;;;1.38;;
57055;SDS011;42945;51.718;5.324;2022-09-09T09:42:17;12.88;;;1.55;;
57055;SDS011;42945;51.718;5.324;2022-09-09T09:48:08;9.20;;;1.45;;
57055;SDS011;42945;51.718;5.324;2022-09-09T10:00:08;13.18;;;2.40;;
57055;SDS011;42945;51.718;5.324;2022-09-09T10:09:29;8.15;;;1.80;;
57055;SDS011;42945;51.718;5.324;2022-09-09T10:42:30;11.32;;;2.70;;
57055;SDS011;42945;51.718;5.324;2022-09-09T10:54:59;8.77;;;2.20;;
57055;SDS011;42945;51.718;5.324;2022-09-09T11:01:09;9.87;;;2.17;;
57055;SDS011;42945;51.718;5.324;2022-09-09T11:07:07;6.82;;;2.05;;
57055;SDS011;42945;51.718;5.324;2022-09-09T11:13:02;8.52;;;1.95;;
57055;SDS011;42945;51.718;5.324;2022-09-09T11:18:55;10.95;;;2.10;;
57055;SDS011;42945;51.718;5.324;2022-09-09T11:43:29;7.65;;;1.80;;
57055;SDS011;42945;51.718;5.324;2022-09-09T11:49:29;10.18;;;2.05;;
57055;SDS011;42945;51.718;5.324;2022-09-09T11:55:33;8.10;;;1.58;;
57055;SDS011;42945;51.718;5.324;2022-09-09T12:07:25;6.32;;;1.70;;
57055;SDS011;42945;51.718;5.324;2022-09-09T12:13:20;6.43;;;1.85;;
57055;SDS011;42945;51.718;5.324;2022-09-09T12:19:16;7.18;;;2.03;;
57055;SDS011;42945;51.718;5.324;2022-09-09T12:43:37;7.43;;;1.80;;
57055;SDS011;42945;51.718;5.324;2022-09-09T12:49:36;8.07;;;1.65;;
57055;SDS011;42945;51.718;5.324;2022-09-09T12:55:28;6.68;;;1.70;;
57055;SDS011;42945;51.718;5.324;2022-09-09T13:07:16;5.63;;;1.90;;
57055;SDS011;42945;51.718;5.324;2022-09-09T13:19:27;9.40;;;1.50;;
57055;SDS011;42945;51.718;5.324;2022-09-09T13:25:24;3.50;;;0.93;;
57055;SDS011;42945;51.718;5.324;2022-09-09T13:31:21;3.58;;;1.10;;
57055;SDS011;42945;51.718;5.324;2022-09-09T13:37:18;7.13;;;1.38;;
57055;SDS011;42945;51.718;5.324;2022-09-09T13:43:23;5.57;;;1.38;;
57055;SDS011;42945;51.718;5.324;2022-09-09T13:55:11;5.70;;;1.20;;
57055;SDS011;42945;51.718;5.324;2022-09-09T14:00:59;4.75;;;1.35;;
57055;SDS011;42945;51.718;5.324;2022-09-09T14:06:46;5.47;;;1.27;;
57055;SDS011;42945;51.718;5.324;2022-09-09T14:12:35;5.93;;;1.52;;
57055;SDS011;42945;51.718;5.324;2022-09-09T14:18:24;4.63;;;1.23;;
57055;SDS011;42945;51.718;5.324;2022-09-09T14:24:16;4.60;;;1.42;;
57055;SDS011;42945;51.718;5.324;2022-09-09T14:30:05;5.60;;;1.00;;
57055;SDS011;42945;51.718;5.324;2022-09-09T14:35:58;3.75;;;0.80;;
57055;SDS011;42945;51.718;5.324;2022-09-09T14:45:49;3.57;;;0.97;;
57055;SDS011;42945;51.718;5.324;2022-09-09T14:51:38;6.03;;;1.00;;
57055;SDS011;42945;51.718;5.324;2022-09-09T14:57:27;4.43;;;0.80;;
57055;SDS011;42945;51.718;5.324;2022-09-09T15:03:16;6.25;;;1.33;;
57055;SDS011;42945;51.718;5.324;2022-09-09T15:09:05;2.85;;;1.42;;
57055;SDS011;42945;51.718;5.324;2022-09-09T15:14:54;5.30;;;1.48;;
57055;SDS011;42945;51.718;5.324;2022-09-09T15:20:46;3.03;;;1.58;;
57055;SDS011;42945;51.718;5.324;2022-09-09T15:26:35;3.83;;;1.40;;
57055;SDS011;42945;51.718;5.324;2022-09-09T15:32:25;5.63;;;1.60;;
57055;SDS011;42945;51.718;5.324;2022-09-09T15:38:14;6.57;;;2.10;;
57055;SDS011;42945;51.718;5.324;2022-09-09T15:48:04;3.30;;;1.15;;
57055;SDS011;42945;51.718;5.324;2022-09-09T15:53:55;3.77;;;1.43;;
57055;SDS011;42945;51.718;5.324;2022-09-09T15:59:47;2.83;;;1.25;;
57055;SDS011;42945;51.718;5.324;2022-09-09T16:05:35;3.72;;;1.25;;
57055;SDS011;42945;51.718;5.324;2022-09-09T16:11:25;2.97;;;1.05;;
57055;SDS011;42945;51.718;5.324;2022-09-09T16:17:22;2.08;;;1.15;;
57055;SDS011;42945;51.718;5.324;2022-09-09T16:23:10;2.03;;;1.20;;
57055;SDS011;42945;51.718;5.324;2022-09-09T16:28:58;4.70;;;1.80;;
57055;SDS011;42945;51.718;5.324;2022-09-09T16:34:52;6.05;;;2.00;;
57055;SDS011;42945;51.718;5.324;2022-09-09T16:40:46;7.32;;;2.17;;
57055;SDS011;42945;51.718;5.324;2022-09-09T16:50:36;6.68;;;2.22;;
57055;SDS011;42945;51.718;5.324;2022-09-09T16:56:25;5.03;;;2.60;;
57055;SDS011;42945;51.718;5.324;2022-09-09T17:02:15;6.18;;;2.30;;
57055;SDS011;42945;51.718;5.324;2022-09-09T17:08:03;6.95;;;2.55;;
57055;SDS011;42945;51.718;5.324;2022-09-09T17:13:52;6.93;;;2.33;;
57055;SDS011;42945;51.718;5.324;2022-09-09T17:19:42;5.57;;;2.40;;
57055;SDS011;42945;51.718;5.324;2022-09-09T17:25:30;6.17;;;2.87;;
57055;SDS011;42945;51.718;5.324;2022-09-09T17:31:20;6.35;;;2.25;;
57055;SDS011;42945;51.718;5.324;2022-09-09T17:37:10;4.45;;;2.30;;
57055;SDS011;42945;51.718;5.324;2022-09-09T17:42:57;4.40;;;2.50;;
57055;SDS011;42945;51.718;5.324;2022-09-09T17:52:39;6.45;;;2.60;;
57055;SDS011;42945;51.718;5.324;2022-09-09T17:58:28;4.95;;;2.75;;
57055;SDS011;42945;51.718;5.324;2022-09-09T18:04:18;7.88;;;3.55;;
57055;SDS011;42945;51.718;5.324;2022-09-09T18:10:22;6.30;;;3.22;;
57055;SDS011;42945;51.718;5.324;2022-09-09T18:16:10;6.70;;;3.30;;
57055;SDS011;42945;51.718;5.324;2022-09-09T18:21:57;9.23;;;4.13;;
57055;SDS011;42945;51.718;5.324;2022-09-09T18:27:47;5.28;;;3.88;;
57055;SDS011;42945;51.718;5.324;2022-09-09T18:33:35;9.35;;;3.80;;
57055;SDS011;42945;51.718;5.324;2022-09-09T18:45:39;7.22;;;4.60;;
57055;SDS011;42945;51.718;5.324;2022-09-09T18:55:28;6.85;;;5.13;;
57055;SDS011;42945;51.718;5.324;2022-09-09T19:01:31;12.35;;;5.20;;
57055;SDS011;42945;51.718;5.324;2022-09-09T19:07:25;10.50;;;5.43;;
57055;SDS011;42945;51.718;5.324;2022-09-09T19:13:14;6.97;;;5.07;;
57055;SDS011;42945;51.718;5.324;2022-09-09T19:19:04;14.27;;;5.68;;
57055;SDS011;42945;51.718;5.324;2022-09-09T19:24:54;15.30;;;5.57;;
57055;SDS011;42945;51.718;5.324;2022-09-09T19:30:45;8.60;;;4.65;;
57055;SDS011;42945;51.718;5.324;2022-09-09T19:36:35;8.88;;;4.38;;
57055;SDS011;42945;51.718;5.324;2022-09-09T19:42:24;8.70;;;4.50;;
57055;SDS011;42945;51.718;5.324;2022-09-09T19:48:38;7.63;;;4.70;;
57055;SDS011;42945;51.718;5.324;2022-09-09T19:58:17;10.80;;;5.10;;
57055;SDS011;42945;51.718;5.324;2022-09-09T20:04:06;8.52;;;5.53;;
57055;SDS011;42945;51.718;5.324;2022-09-09T20:09:56;10.95;;;5.38;;
57055;SDS011;42945;51.718;5.324;2022-09-09T20:15:45;11.73;;;5.53;;
57055;SDS011;42945;51.718;5.324;2022-09-09T20:21:44;12.10;;;6.40;;
57055;SDS011;42945;51.718;5.324;2022-09-09T20:27:38;11.75;;;6.90;;
57055;SDS011;42945;51.718;5.324;2022-09-09T20:33:26;14.85;;;6.38;;
57055;SDS011;42945;51.718;5.324;2022-09-09T20:39:15;12.98;;;7.00;;
57055;SDS011;42945;51.718;5.324;2022-09-09T20:45:09;14.65;;;7.63;;
57055;SDS011;42945;51.718;5.324;2022-09-09T20:51:03;15.43;;;7.70;;
57055;SDS011;42945;51.718;5.324;2022-09-09T21:00:54;13.63;;;7.22;;
57055;SDS011;42945;51.718;5.324;2022-09-09T21:06:46;11.50;;;7.80;;
57055;SDS011;42945;51.718;5.324;2022-09-09T21:12:37;15.95;;;7.38;;
57055;SDS011;42945;51.718;5.324;2022-09-09T21:18:26;14.77;;;6.82;;
57055;SDS011;42945;51.718;5.324;2022-09-09T21:24:15;11.98;;;5.60;;
57055;SDS011;42945;51.718;5.324;2022-09-09T21:30:03;11.85;;;5.35;;
57055;SDS011;42945;51.718;5.324;2022-09-09T21:35:54;12.75;;;5.30;;
57055;SDS011;42945;51.718;5.324;2022-09-09T21:41:43;12.90;;;4.50;;
57055;SDS011;42945;51.718;5.324;2022-09-09T21:47:34;9.73;;;4.28;;
57055;SDS011;42945;51.718;5.324;2022-09-09T21:53:22;14.55;;;4.60;;
57055;SDS011;42945;51.718;5.324;2022-09-09T22:03:14;10.38;;;3.33;;
57055;SDS011;42945;51.718;5.324;2022-09-09T22:09:03;14.38;;;3.22;;
57055;SDS011;42945;51.718;5.324;2022-09-09T22:14:59;11.88;;;2.92;;
57055;SDS011;42945;51.718;5.324;2022-09-09T22:20:47;11.52;;;3.40;;
57055;SDS011;42945;51.718;5.324;2022-09-09T22:26:35;11.70;;;3.35;;
57055;SDS011;42945;51.718;5.324;2022-09-09T22:32:25;12.35;;;3.13;;
57055;SDS011;42945;51.718;5.324;2022-09-09T22:38:21;15.65;;;3.45;;
57055;SDS011;42945;51.718;5.324;2022-09-09T22:44:10;13.07;;;3.33;;
57055;SDS011;42945;51.718;5.324;2022-09-09T22:49:58;7.20;;;2.72;;
57055;SDS011;42945;51.718;5.324;2022-09-09T22:55:55;9.13;;;2.53;;
57055;SDS011;42945;51.718;5.324;2022-09-09T23:05:51;9.82;;;3.13;;
57055;SDS011;42945;51.718;5.324;2022-09-09T23:11:45;12.27;;;3.00;;
57055;SDS011;42945;51.718;5.324;2022-09-09T23:17:33;12.60;;;3.65;;
57055;SDS011;42945;51.718;5.324;2022-09-09T23:23:21;11.63;;;3.60;;
57055;SDS011;42945;51.718;5.324;2022-09-09T23:29:10;15.70;;;4.30;;
57055;SDS011;42945;51.718;5.324;2022-09-09T23:35:00;15.82;;;3.90;;
57055;SDS011;42945;51.718;5.324;2022-09-09T23:40:48;15.57;;;4.25;;
57055;SDS011;42945;51.718;5.324;2022-09-09T23:46:37;13.95;;;4.20;;
57055;SDS011;42945;51.718;5.324;2022-09-09T23:52:25;17.73;;;5.50;;
57055;SDS011;42945;51.718;5.324;2022-09-09T23:58:13;15.98;;;6.55;;
